createdAt,value
2022-10-06T00:01:49.290Z,97683.06
2022-10-06T00:05:46.932Z,97707.63
2022-10-06T00:09:43.938Z,97692.66
2022-10-06T00:13:41.852Z,97698.44
2022-10-06T00:17:39.303Z,97701.25
2022-10-06T00:21:36.385Z,97722.31
2022-10-06T00:25:33.429Z,97720.66
2022-10-06T00:29:30.393Z,97704.38
2022-10-06T00:33:27.372Z,97721.16
2022-10-06T00:37:28.638Z,97724.16
2022-10-06T00:41:25.629Z,97727.47
2022-10-06T00:45:46.514Z,97730.38
2022-10-06T00:49:45.449Z,97725.78
2022-10-06T00:53:42.904Z,97716.97
2022-10-06T00:57:41.637Z,97737.28
2022-10-06T01:01:44.547Z,97727.84
2022-10-06T01:05:48.588Z,97720.91
2022-10-06T01:09:46.514Z,97728.81
2022-10-06T01:13:46.476Z,97731.75
2022-10-06T01:18:00.138Z,97736.00
2022-10-06T01:22:04.630Z,97737.59
2022-10-06T01:26:10.143Z,97736.00
2022-10-06T01:30:19.680Z,97747.47
2022-10-06T01:34:16.960Z,97725.78
2022-10-06T01:38:14.136Z,97733.03
2022-10-06T01:42:11.840Z,97754.53
2022-10-06T01:46:08.958Z,97743.41
2022-10-06T01:50:07.257Z,97745.69
2022-10-06T01:54:05.111Z,97750.72
2022-10-06T01:58:02.281Z,97758.19
2022-10-06T02:01:59.819Z,97748.63
2022-10-06T02:05:57.549Z,97778.75
2022-10-06T02:09:54.803Z,97769.34
2022-10-06T02:13:52.010Z,97746.38
2022-10-06T02:17:49.184Z,97776.81
2022-10-06T02:21:46.241Z,97766.91
2022-10-06T02:25:43.283Z,97783.94
2022-10-06T02:29:40.421Z,97779.38
2022-10-06T02:33:39.979Z,97765.47
2022-10-06T02:37:41.498Z,97781.19
2022-10-06T02:41:40.558Z,97781.91
2022-10-06T02:45:38.407Z,97789.91
2022-10-06T02:49:35.597Z,97807.91
2022-10-06T02:53:32.703Z,97799.03
2022-10-06T02:57:29.840Z,97789.06
2022-10-06T03:01:29.756Z,97760.31
2022-10-06T03:05:36.669Z,97765.72
2022-10-06T03:09:34.097Z,97798.94
2022-10-06T03:13:31.764Z,97788.59
2022-10-06T03:17:29.257Z,97784.38
2022-10-06T03:21:31.087Z,97782.28
2022-10-06T03:25:28.184Z,97798.31
2022-10-06T03:29:25.183Z,97822.44
2022-10-06T03:33:25.917Z,97803.25
2022-10-06T03:37:23.094Z,97806.50
2022-10-06T03:41:33.652Z,97818.78
2022-10-06T03:45:31.221Z,97834.47
2022-10-06T03:49:28.573Z,97835.16
2022-10-06T03:53:29.571Z,97849.91
2022-10-06T03:57:26.698Z,97839.81
2022-10-06T04:01:31.842Z,97845.72
2022-10-06T04:05:31.578Z,97844.25
2022-10-06T04:09:28.813Z,97858.75
2022-10-06T04:13:27.062Z,97872.91
2022-10-06T04:17:24.206Z,97885.31
2022-10-06T04:21:22.331Z,97892.63
2022-10-06T04:25:19.744Z,97877.06
2022-10-06T04:29:18.033Z,97905.06
2022-10-06T04:33:18.259Z,97902.59
2022-10-06T04:37:15.270Z,97913.19
2022-10-06T04:41:17.694Z,97893.41
2022-10-06T04:45:14.963Z,97896.03
2022-10-06T04:49:19.554Z,97909.91
2022-10-06T04:53:18.978Z,97916.41
2022-10-06T04:57:16.256Z,97923.53
2022-10-06T05:01:35.821Z,97935.50
2022-10-06T05:05:36.042Z,97921.50
2022-10-06T05:09:33.085Z,97920.09
2022-10-06T05:13:32.109Z,97917.69
2022-10-06T05:17:31.139Z,97932.75
2022-10-06T05:21:32.409Z,97926.31
2022-10-06T05:25:30.703Z,97942.94
2022-10-06T05:29:27.858Z,97936.66
2022-10-06T05:33:29.246Z,97963.34
2022-10-06T05:37:26.450Z,97964.50
2022-10-06T05:41:32.613Z,97967.00
2022-10-06T05:45:33.461Z,97978.19
2022-10-06T05:49:30.535Z,97972.94
2022-10-06T05:53:34.183Z,97997.09
2022-10-06T05:57:31.644Z,98004.16
2022-10-06T06:01:34.871Z,98008.22
2022-10-06T06:05:41.060Z,98005.75
2022-10-06T06:09:38.668Z,97996.31
2022-10-06T06:13:36.651Z,98017.28
2022-10-06T06:17:38.428Z,98017.75
2022-10-06T06:21:36.509Z,98022.91
2022-10-06T06:25:34.501Z,98025.81
2022-10-06T06:29:31.791Z,98018.00
2022-10-06T06:33:32.267Z,97986.41
2022-10-06T06:37:33.592Z,98058.94
2022-10-06T06:41:37.954Z,98048.78
2022-10-06T06:45:40.643Z,98045.19
2022-10-06T06:49:53.995Z,98051.25
2022-10-06T06:53:53.349Z,98058.63
2022-10-06T06:57:50.789Z,98043.91
2022-10-06T07:01:48.935Z,98075.28
2022-10-06T07:05:51.837Z,98085.03
2022-10-06T07:09:49.368Z,98059.91
2022-10-06T07:13:53.992Z,98101.00
2022-10-06T07:18:09.907Z,98097.28
2022-10-06T07:22:26.040Z,98102.97
2022-10-06T07:26:24.485Z,98097.31
2022-10-06T07:30:29.094Z,98100.44
2022-10-06T07:34:31.087Z,98121.28
2022-10-06T07:38:29.863Z,98126.94
2022-10-06T07:42:28.328Z,98137.72
2022-10-06T07:46:25.431Z,98122.09
2022-10-06T07:50:51.879Z,98133.97
2022-10-06T07:55:08.474Z,98111.84
2022-10-06T07:59:29.487Z,98138.25
2022-10-06T08:03:26.528Z,98145.69
2022-10-06T08:07:23.730Z,98160.16
2022-10-06T08:11:22.888Z,98138.66
2022-10-06T08:15:19.978Z,98165.09
2022-10-06T08:19:19.686Z,98171.16
2022-10-06T08:23:16.745Z,98152.00
2022-10-06T08:27:13.741Z,98187.56
2022-10-06T08:31:12.254Z,98191.53
2022-10-06T08:35:11.171Z,98216.72
2022-10-06T08:39:08.353Z,98202.16
2022-10-06T08:43:19.592Z,98222.13
2022-10-06T08:47:23.039Z,98219.16
2022-10-06T08:51:46.025Z,98218.16
2022-10-06T08:55:53.295Z,98229.41
2022-10-06T08:59:53.763Z,98222.19
2022-10-06T09:03:56.585Z,98225.69
2022-10-06T09:08:45.333Z,98238.91
2022-10-06T09:12:52.131Z,98243.59
2022-10-06T09:17:00.754Z,98237.16
2022-10-06T09:21:02.395Z,98252.22
2022-10-06T09:25:24.407Z,98250.88
2022-10-06T09:29:21.852Z,98241.09
2022-10-06T09:33:25.276Z,98257.72
2022-10-06T09:37:23.690Z,98257.84
2022-10-06T09:41:54.421Z,98266.66
2022-10-06T09:45:54.817Z,98274.38
2022-10-06T09:50:12.160Z,98277.69
2022-10-06T09:54:14.956Z,98286.41
2022-10-06T09:58:23.958Z,98243.88
2022-10-06T10:02:39.695Z,98277.66
2022-10-06T10:06:37.004Z,98238.97
2022-10-06T10:10:36.053Z,98266.50
2022-10-06T10:14:38.698Z,98247.09
2022-10-06T10:18:36.052Z,98272.31
2022-10-06T10:22:39.990Z,98254.00
2022-10-06T10:27:10.051Z,98271.00
2022-10-06T10:31:12.806Z,98282.56
2022-10-06T10:35:25.593Z,98285.19
2022-10-06T10:39:34.719Z,98279.53
2022-10-06T10:44:03.243Z,98284.56
2022-10-06T10:48:11.753Z,98291.44
2022-10-06T10:52:28.012Z,98295.50
2022-10-06T10:56:27.449Z,98281.53
2022-10-06T11:00:30.923Z,98261.50
2022-10-06T11:04:28.455Z,98288.13
2022-10-06T11:08:50.914Z,98292.50
2022-10-06T11:13:12.123Z,98291.19
2022-10-06T11:17:44.712Z,98277.81
2022-10-06T11:21:58.528Z,98293.75
2022-10-06T11:26:40.210Z,98277.28
2022-10-06T11:31:07.876Z,98289.25
2022-10-06T11:35:24.305Z,98290.72
2022-10-06T11:39:32.100Z,98281.78
2022-10-06T11:43:46.390Z,98264.91
2022-10-06T11:48:07.707Z,98287.97
2022-10-06T11:52:08.615Z,98274.56
2022-10-06T11:56:18.115Z,98277.03
2022-10-06T12:00:15.135Z,98280.41
2022-10-06T12:04:13.745Z,98274.41
2022-10-06T12:08:16.794Z,98273.16
2022-10-06T12:12:19.584Z,98278.78
2022-10-06T12:21:12.626Z,98245.38
2022-10-06T12:26:02.122Z,98251.78
2022-10-06T12:30:18.750Z,98269.25
2022-10-06T12:34:51.888Z,98251.78
2022-10-06T12:39:06.811Z,98243.72
2022-10-06T12:43:19.392Z,98249.09
2022-10-06T12:47:29.456Z,98229.22
2022-10-06T12:51:41.946Z,98195.16
2022-10-06T12:55:52.202Z,98204.53
2022-10-06T12:59:50.603Z,98240.53
2022-10-06T13:03:53.573Z,98241.59
2022-10-06T13:08:03.587Z,98257.69
2022-10-06T13:12:29.572Z,98232.50
2022-10-06T13:16:32.819Z,98230.97
2022-10-06T13:20:55.081Z,98236.59
2022-10-06T13:25:02.787Z,98221.50
2022-10-06T13:29:01.182Z,98221.72
2022-10-06T13:32:59.301Z,98240.66
2022-10-06T13:36:59.168Z,98239.44
2022-10-06T13:41:37.132Z,98235.53
2022-10-06T13:45:34.154Z,98241.19
2022-10-06T13:49:45.848Z,98240.56
2022-10-06T13:53:47.811Z,98233.63
2022-10-06T13:58:05.225Z,98219.38
2022-10-06T14:02:32.457Z,98225.91
2022-10-06T14:06:29.535Z,98235.41
2022-10-06T14:10:40.125Z,98245.22
2022-10-06T14:14:38.703Z,98232.34
2022-10-06T14:18:46.791Z,98241.00
2022-10-06T14:22:43.935Z,98240.31
2022-10-06T14:26:40.888Z,98218.06
2022-10-06T14:30:37.951Z,98226.50
2022-10-06T14:34:34.942Z,98239.75
2022-10-06T14:38:32.053Z,98229.47
2022-10-06T14:42:28.996Z,98237.28
2022-10-06T14:46:26.245Z,98232.13
2022-10-06T14:50:23.705Z,98223.53
2022-10-06T14:54:21.544Z,98248.66
2022-10-06T14:58:18.480Z,98217.00
2022-10-06T15:02:15.647Z,98236.03
2022-10-06T15:06:32.459Z,98226.41
2022-10-06T15:10:30.358Z,98222.41
2022-10-06T15:14:28.535Z,98216.84
2022-10-06T15:18:26.234Z,98218.06
2022-10-06T15:22:23.244Z,98226.91
2022-10-06T15:26:38.875Z,98217.59
2022-10-06T15:30:43.126Z,98229.16
2022-10-06T15:34:40.086Z,98202.97
2022-10-06T15:38:37.627Z,98218.91
2022-10-06T15:42:34.756Z,98225.59
2022-10-06T15:46:41.957Z,98222.34
2022-10-06T15:50:39.657Z,98225.78
2022-10-06T15:54:41.755Z,98233.22
2022-10-06T15:58:39.761Z,98211.00
2022-10-06T16:02:37.007Z,98236.06
2022-10-06T16:06:40.488Z,98234.78
2022-10-06T16:10:37.478Z,98240.31
2022-10-06T16:14:35.384Z,98243.25
2022-10-06T16:18:32.389Z,98233.81
2022-10-06T16:22:29.540Z,98232.88
2022-10-06T16:26:28.430Z,98250.06
2022-10-06T16:30:25.416Z,98254.28
2022-10-06T16:34:23.028Z,98242.72
2022-10-06T16:38:26.328Z,98247.31
2022-10-06T16:42:24.300Z,98260.47
2022-10-06T16:46:28.972Z,98257.03
2022-10-06T16:50:26.092Z,98266.44
2022-10-06T16:54:23.214Z,98264.44
2022-10-06T16:58:20.276Z,98240.22
2022-10-06T17:02:17.389Z,98243.22
2022-10-06T17:06:18.153Z,98271.53
2022-10-06T17:10:20.458Z,98249.34
2022-10-06T17:14:19.956Z,98252.53
2022-10-06T17:18:16.994Z,98267.47
2022-10-06T17:22:14.112Z,98268.69
2022-10-06T17:26:18.919Z,98277.56
2022-10-06T17:30:16.923Z,98276.66
2022-10-06T17:34:21.917Z,98270.31
2022-10-06T17:38:20.644Z,98286.72
2022-10-06T17:42:17.967Z,98245.19
2022-10-06T17:46:20.227Z,98298.25
2022-10-06T17:50:17.204Z,98290.34
2022-10-06T17:54:18.213Z,98297.38
2022-10-06T17:58:18.544Z,98295.34
2022-10-06T18:02:17.122Z,98284.97
2022-10-06T18:06:17.537Z,98272.09
2022-10-06T18:10:33.419Z,98291.47
2022-10-06T18:14:33.736Z,98304.78
2022-10-06T18:18:32.193Z,98280.63
2022-10-06T18:22:29.170Z,98288.75
2022-10-06T18:26:26.111Z,98272.41
2022-10-06T18:30:28.338Z,98277.16
2022-10-06T18:38:45.844Z,98292.94
2022-10-06T18:42:42.843Z,98301.53
2022-10-06T18:46:58.550Z,98301.53
2022-10-06T18:51:02.898Z,98306.09
2022-10-06T18:54:59.903Z,98294.06
2022-10-06T18:58:59.492Z,98293.03
2022-10-06T19:02:56.950Z,98271.06
2022-10-06T19:06:55.982Z,98323.06
2022-10-06T19:11:12.131Z,98293.88
2022-10-06T19:15:10.196Z,98295.34
2022-10-06T19:19:11.735Z,98290.59
2022-10-06T19:23:08.797Z,98321.09
2022-10-06T19:27:16.047Z,98320.09
2022-10-06T19:31:18.768Z,98313.13
2022-10-06T19:35:16.305Z,98313.56
2022-10-06T19:39:13.358Z,98287.44
2022-10-06T19:43:10.940Z,98315.44
2022-10-06T19:47:12.507Z,98314.75
2022-10-06T19:51:17.755Z,98320.22
2022-10-06T19:55:14.776Z,98319.28
2022-10-06T19:59:21.715Z,98291.69
2022-10-06T20:03:20.283Z,98286.94
2022-10-06T20:07:21.569Z,98315.88
2022-10-06T20:11:22.325Z,98311.34
2022-10-06T20:15:19.851Z,98286.00
2022-10-06T20:19:21.106Z,98306.09
2022-10-06T20:23:18.975Z,98291.59
2022-10-06T20:27:16.053Z,98297.91
2022-10-06T20:31:24.767Z,98307.44
2022-10-06T20:35:21.867Z,98303.34
2022-10-06T20:39:40.561Z,98281.56
2022-10-06T20:43:41.097Z,98330.53
2022-10-06T20:47:38.271Z,98320.28
2022-10-06T20:51:41.532Z,98285.13
2022-10-06T20:55:38.541Z,98285.09
2022-10-06T20:59:35.753Z,98279.41
2022-10-06T21:03:35.176Z,98256.16
2022-10-06T21:07:32.453Z,98310.84
2022-10-06T21:12:00.086Z,98212.78
2022-10-06T21:16:05.023Z,98273.66
2022-10-06T21:20:05.999Z,98304.78
2022-10-06T21:24:06.557Z,98311.06
2022-10-06T21:28:04.892Z,98292.91
2022-10-06T21:32:02.133Z,98313.28
2022-10-06T21:36:04.968Z,98310.28
2022-10-06T21:40:02.689Z,98302.72
2022-10-06T21:44:06.941Z,98300.72
2022-10-06T21:48:04.196Z,98282.00
2022-10-06T21:52:05.026Z,98275.63
2022-10-06T21:56:02.154Z,98279.31
2022-10-06T21:59:59.366Z,98262.91
2022-10-06T22:03:58.452Z,98290.13
2022-10-06T22:07:55.617Z,98255.97
2022-10-06T22:11:52.770Z,98256.13
2022-10-06T22:15:49.928Z,98246.81
2022-10-06T22:19:47.104Z,98277.56
2022-10-06T22:23:47.342Z,98274.31
2022-10-06T22:27:44.709Z,98263.91
2022-10-06T22:31:45.048Z,98230.31
2022-10-06T22:35:51.113Z,98268.69
2022-10-06T22:39:48.276Z,98267.44
2022-10-06T22:43:45.701Z,98244.38
2022-10-06T22:47:43.004Z,98244.13
2022-10-06T22:51:40.348Z,98228.47
2022-10-06T22:55:37.477Z,98251.50
2022-10-06T22:59:34.682Z,98238.47
2022-10-06T23:03:31.848Z,98219.66
2022-10-06T23:07:29.021Z,98228.69
2022-10-06T23:11:26.298Z,98238.88
2022-10-06T23:15:24.092Z,98241.88
2022-10-06T23:19:21.197Z,98188.66
2022-10-06T23:23:19.365Z,98214.59
2022-10-06T23:27:16.495Z,98218.06
2022-10-06T23:31:13.732Z,98222.91
2022-10-06T23:35:12.195Z,98186.50
2022-10-06T23:39:10.228Z,98204.56
2022-10-06T23:43:07.362Z,98180.41
2022-10-06T23:47:05.221Z,98200.94
2022-10-06T23:51:09.395Z,98221.97
2022-10-06T23:55:07.546Z,98206.31
2022-10-06T23:59:05.061Z,98218.47
